sensor_id;sensor_type;location;lat;lon;timestamp;pressure;altitude;pressure_sealevel;temperature;humidity
23261;BME280;11799;47.740;-3.390;2023-08-08T00:00:05;101951.72;;;16.01;100.00
23261;BME280;11799;47.740;-3.390;2023-08-08T00:02:30;101960.31;;;16.04;100.00
23261;BME280;11799;47.740;-3.390;2023-08-08T00:04:56;101961.66;;;15.99;100.00
23261;BME280;11799;47.740;-3.390;2023-08-08T00:07:22;101963.34;;;16.00;100.00
23261;BME280;11799;47.740;-3.390;2023-08-08T00:09:47;101962.63;;;15.98;100.00
23261;BME280;11799;47.740;-3.390;2023-08-08T00:12:13;101961.41;;;16.02;100.00
23261;BME280;11799;47.740;-3.390;2023-08-08T00:14:38;101961.03;;;16.06;100.00
23261;BME280;11799;47.740;-3.390;2023-08-08T00:17:04;101962.59;;;16.09;100.00
23261;BME280;11799;47.740;-3.390;2023-08-08T00:19:30;101959.94;;;16.09;100.00
23261;BME280;11799;47.740;-3.390;2023-08-08T00:21:55;101964.28;;;16.10;100.00
23261;BME280;11799;47.740;-3.390;2023-08-08T00:24:21;101957.28;;;16.09;100.00
23261;BME280;11799;47.740;-3.390;2023-08-08T00:26:46;101953.28;;;16.03;100.00
23261;BME280;11799;47.740;-3.390;2023-08-08T00:29:12;101953.88;;;16.07;100.00
23261;BME280;11799;47.740;-3.390;2023-08-08T00:31:37;101960.91;;;16.08;100.00
23261;BME280;11799;47.740;-3.390;2023-08-08T00:34:03;101967.09;;;16.08;100.00
23261;BME280;11799;47.740;-3.390;2023-08-08T00:36:28;101970.13;;;16.04;100.00
23261;BME280;11799;47.740;-3.390;2023-08-08T00:38:54;101965.06;;;16.01;100.00
23261;BME280;11799;47.740;-3.390;2023-08-08T00:41:19;101960.69;;;16.00;100.00
23261;BME280;11799;47.740;-3.390;2023-08-08T00:43:45;101954.31;;;15.91;100.00
23261;BME280;11799;47.740;-3.390;2023-08-08T00:46:11;101953.47;;;15.91;100.00
23261;BME280;11799;47.740;-3.390;2023-08-08T00:48:36;101929.41;;;15.81;100.00
23261;BME280;11799;47.740;-3.390;2023-08-08T00:51:02;101940.00;;;15.92;100.00
23261;BME280;11799;47.740;-3.390;2023-08-08T00:53:29;101945.72;;;15.88;100.00
23261;BME280;11799;47.740;-3.390;2023-08-08T00:55:58;101940.25;;;15.89;100.00
23261;BME280;11799;47.740;-3.390;2023-08-08T00:58:25;101941.38;;;15.87;100.00
23261;BME280;11799;47.740;-3.390;2023-08-08T01:00:51;101948.25;;;15.89;100.00
23261;BME280;11799;47.740;-3.390;2023-08-08T01:03:20;101937.00;;;15.85;100.00
23261;BME280;11799;47.740;-3.390;2023-08-08T01:05:55;101926.72;;;15.81;100.00
23261;BME280;11799;47.740;-3.390;2023-08-08T01:08:27;101930.63;;;15.77;100.00
23261;BME280;11799;47.740;-3.390;2023-08-08T01:10:58;101932.44;;;15.76;100.00
23261;BME280;11799;47.740;-3.390;2023-08-08T01:13:26;101923.72;;;15.74;100.00
23261;BME280;11799;47.740;-3.390;2023-08-08T01:15:53;101920.56;;;15.80;100.00
23261;BME280;11799;47.740;-3.390;2023-08-08T01:18:21;101908.47;;;15.76;100.00
23261;BME280;11799;47.740;-3.390;2023-08-08T01:20:48;101904.34;;;15.72;100.00
23261;BME280;11799;47.740;-3.390;2023-08-08T01:23:24;101905.94;;;15.75;100.00
23261;BME280;11799;47.740;-3.390;2023-08-08T01:25:55;101900.00;;;15.71;100.00
23261;BME280;11799;47.740;-3.390;2023-08-08T01:28:22;101902.66;;;15.71;100.00
23261;BME280;11799;47.740;-3.390;2023-08-08T01:30:48;101885.84;;;15.71;100.00
23261;BME280;11799;47.740;-3.390;2023-08-08T01:33:14;101901.19;;;15.78;100.00
23261;BME280;11799;47.740;-3.390;2023-08-08T01:35:44;101891.16;;;15.71;100.00
23261;BME280;11799;47.740;-3.390;2023-08-08T01:38:14;101896.13;;;15.75;100.00
23261;BME280;11799;47.740;-3.390;2023-08-08T01:40:43;101888.97;;;15.76;100.00
23261;BME280;11799;47.740;-3.390;2023-08-08T01:43:09;101891.88;;;15.73;100.00
23261;BME280;11799;47.740;-3.390;2023-08-08T01:45:36;101886.44;;;15.74;100.00
23261;BME280;11799;47.740;-3.390;2023-08-08T01:48:07;101894.06;;;15.79;100.00
23261;BME280;11799;47.740;-3.390;2023-08-08T01:50:33;101901.06;;;15.80;100.00
23261;BME280;11799;47.740;-3.390;2023-08-08T01:52:58;101896.84;;;15.77;100.00
23261;BME280;11799;47.740;-3.390;2023-08-08T01:55:24;101899.84;;;15.84;100.00
23261;BME280;11799;47.740;-3.390;2023-08-08T01:57:49;101917.50;;;15.85;100.00
23261;BME280;11799;47.740;-3.390;2023-08-08T02:00:16;101915.94;;;15.82;100.00
23261;BME280;11799;47.740;-3.390;2023-08-08T02:02:42;101917.50;;;15.85;100.00
23261;BME280;11799;47.740;-3.390;2023-08-08T02:05:08;101923.34;;;15.79;100.00
23261;BME280;11799;47.740;-3.390;2023-08-08T02:07:33;101918.41;;;15.74;100.00
23261;BME280;11799;47.740;-3.390;2023-08-08T02:09:59;101916.19;;;15.79;100.00
23261;BME280;11799;47.740;-3.390;2023-08-08T02:12:25;101906.00;;;15.84;100.00
23261;BME280;11799;47.740;-3.390;2023-08-08T02:14:51;101900.81;;;15.83;100.00
23261;BME280;11799;47.740;-3.390;2023-08-08T02:17:16;101906.53;;;15.78;100.00
23261;BME280;11799;47.740;-3.390;2023-08-08T02:19:42;101900.34;;;15.78;100.00
23261;BME280;11799;47.740;-3.390;2023-08-08T02:22:08;101905.31;;;15.71;100.00
23261;BME280;11799;47.740;-3.390;2023-08-08T02:24:34;101903.50;;;15.72;100.00
23261;BME280;11799;47.740;-3.390;2023-08-08T02:27:00;101908.97;;;15.70;100.00
23261;BME280;11799;47.740;-3.390;2023-08-08T02:29:26;101902.06;;;15.68;100.00
23261;BME280;11799;47.740;-3.390;2023-08-08T02:31:51;101894.09;;;15.68;100.00
23261;BME280;11799;47.740;-3.390;2023-08-08T02:34:17;101891.81;;;15.63;100.00
23261;BME280;11799;47.740;-3.390;2023-08-08T02:36:42;101888.41;;;15.61;100.00
23261;BME280;11799;47.740;-3.390;2023-08-08T02:39:08;101891.56;;;15.55;100.00
23261;BME280;11799;47.740;-3.390;2023-08-08T02:41:33;101884.69;;;15.52;100.00
23261;BME280;11799;47.740;-3.390;2023-08-08T02:43:59;101888.69;;;15.47;100.00
23261;BME280;11799;47.740;-3.390;2023-08-08T02:46:25;101878.75;;;15.49;100.00
23261;BME280;11799;47.740;-3.390;2023-08-08T02:48:50;101873.94;;;15.43;100.00
23261;BME280;11799;47.740;-3.390;2023-08-08T02:51:16;101881.19;;;15.41;100.00
23261;BME280;11799;47.740;-3.390;2023-08-08T02:53:42;101886.66;;;15.39;100.00
23261;BME280;11799;47.740;-3.390;2023-08-08T02:56:08;101887.75;;;15.37;100.00
23261;BME280;11799;47.740;-3.390;2023-08-08T02:58:38;101897.06;;;15.31;100.00
23261;BME280;11799;47.740;-3.390;2023-08-08T03:01:04;101891.50;;;15.34;100.00
23261;BME280;11799;47.740;-3.390;2023-08-08T03:03:29;101889.94;;;15.32;100.00
23261;BME280;11799;47.740;-3.390;2023-08-08T03:05:55;101892.00;;;15.28;100.00
23261;BME280;11799;47.740;-3.390;2023-08-08T03:08:21;101880.63;;;15.26;100.00
23261;BME280;11799;47.740;-3.390;2023-08-08T03:10:46;101868.28;;;15.25;100.00
23261;BME280;11799;47.740;-3.390;2023-08-08T03:13:12;101875.78;;;15.20;100.00
23261;BME280;11799;47.740;-3.390;2023-08-08T03:15:38;101881.13;;;15.20;100.00
23261;BME280;11799;47.740;-3.390;2023-08-08T03:18:05;101872.41;;;15.18;100.00
23261;BME280;11799;47.740;-3.390;2023-08-08T03:20:30;101872.78;;;15.13;100.00
23261;BME280;11799;47.740;-3.390;2023-08-08T03:22:56;101878.81;;;15.15;100.00
23261;BME280;11799;47.740;-3.390;2023-08-08T03:25:22;101876.03;;;15.17;100.00
23261;BME280;11799;47.740;-3.390;2023-08-08T03:27:47;101889.47;;;15.15;100.00
23261;BME280;11799;47.740;-3.390;2023-08-08T03:30:14;101889.97;;;15.09;100.00
23261;BME280;11799;47.740;-3.390;2023-08-08T03:32:41;101889.97;;;15.09;100.00
23261;BME280;11799;47.740;-3.390;2023-08-08T03:35:07;101886.31;;;15.10;100.00
23261;BME280;11799;47.740;-3.390;2023-08-08T03:37:36;101887.91;;;15.13;100.00
23261;BME280;11799;47.740;-3.390;2023-08-08T03:40:02;101886.69;;;15.17;100.00
23261;BME280;11799;47.740;-3.390;2023-08-08T03:42:28;101887.53;;;15.17;100.00
23261;BME280;11799;47.740;-3.390;2023-08-08T03:44:54;101885.00;;;15.16;100.00
23261;BME280;11799;47.740;-3.390;2023-08-08T03:47:19;101885.13;;;15.14;100.00
23261;BME280;11799;47.740;-3.390;2023-08-08T03:49:45;101888.88;;;15.12;100.00
23261;BME280;11799;47.740;-3.390;2023-08-08T03:52:11;101895.41;;;15.08;100.00
23261;BME280;11799;47.740;-3.390;2023-08-08T03:54:37;101895.75;;;15.03;100.00
23261;BME280;11799;47.740;-3.390;2023-08-08T03:57:04;101894.22;;;15.01;100.00
23261;BME280;11799;47.740;-3.390;2023-08-08T03:59:29;101892.91;;;14.95;100.00
23261;BME280;11799;47.740;-3.390;2023-08-08T04:01:55;101880.09;;;14.89;100.00
23261;BME280;11799;47.740;-3.390;2023-08-08T04:04:21;101883.22;;;14.94;100.00
23261;BME280;11799;47.740;-3.390;2023-08-08T04:06:46;101888.66;;;14.93;100.00
23261;BME280;11799;47.740;-3.390;2023-08-08T04:09:12;101894.22;;;14.90;100.00
23261;BME280;11799;47.740;-3.390;2023-08-08T04:11:37;101890.59;;;14.91;100.00
23261;BME280;11799;47.740;-3.390;2023-08-08T04:14:03;101896.63;;;14.93;100.00
23261;BME280;11799;47.740;-3.390;2023-08-08T04:16:28;101907.28;;;14.93;100.00
23261;BME280;11799;47.740;-3.390;2023-08-08T04:18:54;101905.34;;;14.95;100.00
23261;BME280;11799;47.740;-3.390;2023-08-08T04:21:19;101900.16;;;14.93;100.00
23261;BME280;11799;47.740;-3.390;2023-08-08T04:23:45;101892.06;;;14.95;100.00
23261;BME280;11799;47.740;-3.390;2023-08-08T04:26:11;101893.13;;;14.92;100.00
23261;BME280;11799;47.740;-3.390;2023-08-08T04:28:36;101888.66;;;14.93;100.00
23261;BME280;11799;47.740;-3.390;2023-08-08T04:31:02;101882.88;;;14.88;100.00
23261;BME280;11799;47.740;-3.390;2023-08-08T04:33:27;101886.72;;;14.83;100.00
23261;BME280;11799;47.740;-3.390;2023-08-08T04:35:53;101883.34;;;14.81;100.00
23261;BME280;11799;47.740;-3.390;2023-08-08T04:38:19;101884.19;;;14.82;100.00
23261;BME280;11799;47.740;-3.390;2023-08-08T04:40:44;101891.31;;;14.93;100.00
23261;BME280;11799;47.740;-3.390;2023-08-08T04:43:10;101889.50;;;14.93;100.00
23261;BME280;11799;47.740;-3.390;2023-08-08T04:45:35;101894.81;;;14.93;100.00
23261;BME280;11799;47.740;-3.390;2023-08-08T04:48:01;101888.91;;;14.90;100.00
23261;BME280;11799;47.740;-3.390;2023-08-08T04:50:26;101886.25;;;14.90;100.00
23261;BME280;11799;47.740;-3.390;2023-08-08T04:52:53;101890.59;;;14.91;100.00
23261;BME280;11799;47.740;-3.390;2023-08-08T04:55:19;101874.03;;;14.87;100.00
23261;BME280;11799;47.740;-3.390;2023-08-08T04:57:44;101878.50;;;14.86;100.00
23261;BME280;11799;47.740;-3.390;2023-08-08T05:00:10;101897.13;;;14.86;100.00
23261;BME280;11799;47.740;-3.390;2023-08-08T05:02:36;101896.28;;;14.86;100.00
23261;BME280;11799;47.740;-3.390;2023-08-08T05:05:04;101890.97;;;14.86;100.00
23261;BME280;11799;47.740;-3.390;2023-08-08T05:07:29;101893.38;;;14.78;100.00
23261;BME280;11799;47.740;-3.390;2023-08-08T05:09:55;101886.84;;;14.71;100.00
23261;BME280;11799;47.740;-3.390;2023-08-08T05:12:20;101891.19;;;14.72;100.00
23261;BME280;11799;47.740;-3.390;2023-08-08T05:14:46;101897.13;;;14.75;100.00
23261;BME280;11799;47.740;-3.390;2023-08-08T05:17:12;101900.50;;;14.77;100.00
23261;BME280;11799;47.740;-3.390;2023-08-08T05:19:37;101897.47;;;14.71;100.00
23261;BME280;11799;47.740;-3.390;2023-08-08T05:22:03;101886.09;;;14.69;100.00
23261;BME280;11799;47.740;-3.390;2023-08-08T05:24:29;101884.91;;;14.73;100.00
23261;BME280;11799;47.740;-3.390;2023-08-08T05:26:54;101872.59;;;14.72;100.00
23261;BME280;11799;47.740;-3.390;2023-08-08T05:29:20;101870.16;;;14.69;100.00
23261;BME280;11799;47.740;-3.390;2023-08-08T05:31:46;101885.88;;;14.72;100.00
23261;BME280;11799;47.740;-3.390;2023-08-08T05:34:13;101891.91;;;14.74;100.00
23261;BME280;11799;47.740;-3.390;2023-08-08T05:36:38;101897.13;;;14.75;100.00
23261;BME280;11799;47.740;-3.390;2023-08-08T05:39:04;101888.19;;;14.76;100.00
23261;BME280;11799;47.740;-3.390;2023-08-08T05:41:29;101896.75;;;14.80;100.00
23261;BME280;11799;47.740;-3.390;2023-08-08T05:43:55;101899.66;;;14.77;100.00
23261;BME280;11799;47.740;-3.390;2023-08-08T05:46:20;101901.22;;;14.79;100.00
23261;BME280;11799;47.740;-3.390;2023-08-08T05:48:46;101888.78;;;14.80;100.00
23261;BME280;11799;47.740;-3.390;2023-08-08T05:51:12;101886.13;;;14.80;100.00
23261;BME280;11799;47.740;-3.390;2023-08-08T05:53:37;101890.22;;;14.84;100.00
23261;BME280;11799;47.740;-3.390;2023-08-08T05:56:04;101883.72;;;14.88;100.00
23261;BME280;11799;47.740;-3.390;2023-08-08T05:58:29;101889.75;;;14.90;100.00
23261;BME280;11799;47.740;-3.390;2023-08-08T06:00:55;101889.63;;;14.92;100.00
23261;BME280;11799;47.740;-3.390;2023-08-08T06:03:20;101888.66;;;14.93;100.00
23261;BME280;11799;47.740;-3.390;2023-08-08T06:05:46;101895.44;;;14.97;100.00
23261;BME280;11799;47.740;-3.390;2023-08-08T06:08:11;101897.56;;;15.03;100.00
23261;BME280;11799;47.740;-3.390;2023-08-08T06:10:38;101894.44;;;15.09;100.00
23261;BME280;11799;47.740;-3.390;2023-08-08T06:13:04;101897.94;;;15.09;100.00
23261;BME280;11799;47.740;-3.390;2023-08-08T06:15:29;101894.19;;;15.12;100.00
23261;BME280;11799;47.740;-3.390;2023-08-08T06:17:55;101894.06;;;15.13;100.00
23261;BME280;11799;47.740;-3.390;2023-08-08T06:20:21;101906.28;;;15.16;100.00
23261;BME280;11799;47.740;-3.390;2023-08-08T06:22:46;101907.13;;;15.28;100.00
23261;BME280;11799;47.740;-3.390;2023-08-08T06:25:12;101907.47;;;15.34;100.00
23261;BME280;11799;47.740;-3.390;2023-08-08T06:27:38;101907.47;;;15.34;100.00
23261;BME280;11799;47.740;-3.390;2023-08-08T06:30:04;101907.09;;;15.39;100.00
23261;BME280;11799;47.740;-3.390;2023-08-08T06:32:30;101906.34;;;15.48;100.00
23261;BME280;11799;47.740;-3.390;2023-08-08T06:34:56;101897.06;;;15.42;100.00
23261;BME280;11799;47.740;-3.390;2023-08-08T06:37:21;101903.22;;;15.43;100.00
23261;BME280;11799;47.740;-3.390;2023-08-08T06:39:47;101899.47;;;15.45;100.00
23261;BME280;11799;47.740;-3.390;2023-08-08T06:42:12;101902.00;;;15.47;100.00
23261;BME280;11799;47.740;-3.390;2023-08-08T06:44:50;101891.47;;;15.57;100.00
23261;BME280;11799;47.740;-3.390;2023-08-08T06:47:16;101898.94;;;15.63;100.00
23261;BME280;11799;47.740;-3.390;2023-08-08T06:49:41;101885.97;;;15.69;100.00
23261;BME280;11799;47.740;-3.390;2023-08-08T06:52:07;101894.56;;;15.73;100.00
23261;BME280;11799;47.740;-3.390;2023-08-08T06:54:33;101889.69;;;15.78;100.00
23261;BME280;11799;47.740;-3.390;2023-08-08T06:56:58;101891.13;;;15.82;100.00
23261;BME280;11799;47.740;-3.390;2023-08-08T06:59:25;101880.09;;;15.87;100.00
23261;BME280;11799;47.740;-3.390;2023-08-08T07:01:51;101885.03;;;15.91;100.00
23261;BME280;11799;47.740;-3.390;2023-08-08T07:04:17;101876.28;;;16.00;100.00
23261;BME280;11799;47.740;-3.390;2023-08-08T07:06:44;101869.22;;;16.10;100.00
23261;BME280;11799;47.740;-3.390;2023-08-08T07:09:12;101877.13;;;16.22;100.00
23261;BME280;11799;47.740;-3.390;2023-08-08T07:11:37;101880.38;;;16.25;100.00
23261;BME280;11799;47.740;-3.390;2023-08-08T07:14:03;101877.56;;;16.27;100.00
23261;BME280;11799;47.740;-3.390;2023-08-08T07:16:29;101873.28;;;16.35;100.00
23261;BME280;11799;47.740;-3.390;2023-08-08T07:18:55;101873.72;;;16.40;100.00
23261;BME280;11799;47.740;-3.390;2023-08-08T07:21:20;101872.34;;;16.46;100.00
23261;BME280;11799;47.740;-3.390;2023-08-08T07:23:46;101870.41;;;16.48;100.00
23261;BME280;11799;47.740;-3.390;2023-08-08T07:26:12;101876.31;;;16.51;100.00
23261;BME280;11799;47.740;-3.390;2023-08-08T07:28:37;101876.91;;;16.55;100.00
23261;BME280;11799;47.740;-3.390;2023-08-08T07:31:03;101866.25;;;16.55;100.00
23261;BME280;11799;47.740;-3.390;2023-08-08T07:33:29;101873.34;;;16.66;100.00
23261;BME280;11799;47.740;-3.390;2023-08-08T07:35:54;101871.00;;;16.72;100.00
23261;BME280;11799;47.740;-3.390;2023-08-08T07:38:20;101869.78;;;16.96;100.00
23261;BME280;11799;47.740;-3.390;2023-08-08T07:40:45;101869.19;;;17.23;100.00
23261;BME280;11799;47.740;-3.390;2023-08-08T07:43:11;101865.69;;;17.41;100.00
23261;BME280;11799;47.740;-3.390;2023-08-08T07:45:37;101868.09;;;17.54;100.00
23261;BME280;11799;47.740;-3.390;2023-08-08T07:48:04;101870.91;;;17.62;100.00
23261;BME280;11799;47.740;-3.390;2023-08-08T07:50:30;101869.25;;;17.71;100.00
23261;BME280;11799;47.740;-3.390;2023-08-08T07:52:56;101874.75;;;17.79;100.00
23261;BME280;11799;47.740;-3.390;2023-08-08T07:55:21;101880.25;;;17.87;100.00
23261;BME280;11799;47.740;-3.390;2023-08-08T07:57:47;101870.38;;;17.97;100.00
23261;BME280;11799;47.740;-3.390;2023-08-08T08:00:13;101848.41;;;18.03;100.00
23261;BME280;11799;47.740;-3.390;2023-08-08T08:02:43;101860.22;;;18.10;100.00
23261;BME280;11799;47.740;-3.390;2023-08-08T08:05:09;101856.41;;;18.13;100.00
23261;BME280;11799;47.740;-3.390;2023-08-08T08:07:35;101848.97;;;18.17;100.00
23261;BME280;11799;47.740;-3.390;2023-08-08T08:10:02;101849.66;;;18.19;100.00
23261;BME280;11799;47.740;-3.390;2023-08-08T08:12:29;101855.84;;;18.19;100.00
23261;BME280;11799;47.740;-3.390;2023-08-08T08:14:55;101858.66;;;18.18;100.00
23261;BME280;11799;47.740;-3.390;2023-08-08T08:17:21;101858.66;;;18.18;100.00
23261;BME280;11799;47.740;-3.390;2023-08-08T08:19:46;101851.50;;;18.18;100.00
23261;BME280;11799;47.740;-3.390;2023-08-08T08:22:12;101853.88;;;18.21;100.00
23261;BME280;11799;47.740;-3.390;2023-08-08T08:24:37;101847.41;;;18.24;100.00
23261;BME280;11799;47.740;-3.390;2023-08-08T08:27:03;101849.09;;;18.25;100.00
23261;BME280;11799;47.740;-3.390;2023-08-08T08:29:29;101853.31;;;18.27;100.00
23261;BME280;11799;47.740;-3.390;2023-08-08T08:31:56;101846.28;;;18.26;100.00
23261;BME280;11799;47.740;-3.390;2023-08-08T08:34:21;101846.09;;;18.37;100.00
23261;BME280;11799;47.740;-3.390;2023-08-08T08:36:47;101854.81;;;18.39;100.00
23261;BME280;11799;47.740;-3.390;2023-08-08T08:39:13;101853.97;;;18.39;100.00
23261;BME280;11799;47.740;-3.390;2023-08-08T08:41:39;101852.03;;;18.31;100.00
23261;BME280;11799;47.740;-3.390;2023-08-08T08:44:05;101844.00;;;18.31;100.00
23261;BME280;11799;47.740;-3.390;2023-08-08T08:46:35;101840.63;;;18.29;100.00
23261;BME280;11799;47.740;-3.390;2023-08-08T08:49:02;101861.88;;;18.40;100.00
23261;BME280;11799;47.740;-3.390;2023-08-08T08:51:29;101856.66;;;18.39;100.00
23261;BME280;11799;47.740;-3.390;2023-08-08T08:53:55;101852.00;;;18.41;100.00
23261;BME280;11799;47.740;-3.390;2023-08-08T08:56:21;101856.22;;;18.43;100.00
23261;BME280;11799;47.740;-3.390;2023-08-08T08:58:48;101863.41;;;18.43;100.00
23261;BME280;11799;47.740;-3.390;2023-08-08T09:01:14;101851.88;;;18.33;100.00
23261;BME280;11799;47.740;-3.390;2023-08-08T09:03:41;101855.97;;;18.37;100.00
23261;BME280;11799;47.740;-3.390;2023-08-08T09:06:08;101865.66;;;18.38;100.00
23261;BME280;11799;47.740;-3.390;2023-08-08T09:08:34;101868.63;;;18.35;100.00
23261;BME280;11799;47.740;-3.390;2023-08-08T09:11:00;101863.97;;;18.37;100.00
23261;BME280;11799;47.740;-3.390;2023-08-08T09:13:25;101865.38;;;18.41;100.00
23261;BME280;11799;47.740;-3.390;2023-08-08T09:15:52;101865.53;;;18.39;100.00
23261;BME280;11799;47.740;-3.390;2023-08-08T09:18:17;101860.31;;;18.38;100.00
23261;BME280;11799;47.740;-3.390;2023-08-08T09:20:49;101865.38;;;18.41;100.00
23261;BME280;11799;47.740;-3.390;2023-08-08T09:23:15;101856.50;;;18.40;100.00
23261;BME280;11799;47.740;-3.390;2023-08-08T09:25:40;101859.75;;;18.44;100.00
23261;BME280;11799;47.740;-3.390;2023-08-08T09:28:06;101870.81;;;18.49;100.00
23261;BME280;11799;47.740;-3.390;2023-08-08T09:30:32;101855.47;;;18.51;100.00
23261;BME280;11799;47.740;-3.390;2023-08-08T09:32:59;101852.28;;;18.47;100.00
23261;BME280;11799;47.740;-3.390;2023-08-08T09:35:25;101853.50;;;18.53;100.00
23261;BME280;11799;47.740;-3.390;2023-08-08T09:37:53;101844.47;;;18.54;100.00
23261;BME280;11799;47.740;-3.390;2023-08-08T09:40:19;101846.16;;;18.55;100.00
23261;BME280;11799;47.740;-3.390;2023-08-08T09:42:46;101846.72;;;18.59;100.00
23261;BME280;11799;47.740;-3.390;2023-08-08T09:45:12;101855.31;;;18.62;100.00
23261;BME280;11799;47.740;-3.390;2023-08-08T09:47:38;101840.25;;;18.61;100.00
23261;BME280;11799;47.740;-3.390;2023-08-08T09:50:04;101843.19;;;18.68;100.00
23261;BME280;11799;47.740;-3.390;2023-08-08T09:52:30;101838.25;;;18.73;100.00
23261;BME280;11799;47.740;-3.390;2023-08-08T09:54:56;101847.97;;;18.74;100.00
23261;BME280;11799;47.740;-3.390;2023-08-08T09:57:25;101849.66;;;18.75;100.00
23261;BME280;11799;47.740;-3.390;2023-08-08T09:59:52;101845.69;;;18.79;100.00
23261;BME280;11799;47.740;-3.390;2023-08-08T10:02:18;101858.63;;;18.84;100.00
23261;BME280;11799;47.740;-3.390;2023-08-08T10:04:47;101850.16;;;18.88;100.00
23261;BME280;11799;47.740;-3.390;2023-08-08T10:07:13;101844.66;;;18.90;100.00
23261;BME280;11799;47.740;-3.390;2023-08-08T10:09:39;101851.41;;;18.94;100.00
23261;BME280;11799;47.740;-3.390;2023-08-08T10:12:06;101830.81;;;18.94;100.00
23261;BME280;11799;47.740;-3.390;2023-08-08T10:14:34;101850.34;;;19.04;100.00
23261;BME280;11799;47.740;-3.390;2023-08-08T10:17:03;101842.31;;;19.04;100.00
23261;BME280;11799;47.740;-3.390;2023-08-08T10:19:29;101834.34;;;19.12;100.00
23261;BME280;11799;47.740;-3.390;2023-08-08T10:22:07;101839.13;;;19.19;100.00
23261;BME280;11799;47.740;-3.390;2023-08-08T10:24:35;101834.75;;;19.18;100.00
23261;BME280;11799;47.740;-3.390;2023-08-08T10:27:01;101818.69;;;19.18;100.00
23261;BME280;11799;47.740;-3.390;2023-08-08T10:29:29;101822.75;;;19.22;100.00
23261;BME280;11799;47.740;-3.390;2023-08-08T10:32:03;101825.97;;;19.25;100.00
23261;BME280;11799;47.740;-3.390;2023-08-08T10:34:40;101829.78;;;19.23;100.00
23261;BME280;11799;47.740;-3.390;2023-08-08T10:37:13;101825.56;;;19.20;100.00
23261;BME280;11799;47.740;-3.390;2023-08-08T10:39:57;101826.97;;;19.24;100.00
23261;BME280;11799;47.740;-3.390;2023-08-08T10:42:25;101832.56;;;19.31;100.00
23261;BME280;11799;47.740;-3.390;2023-08-08T10:44:52;101829.28;;;19.37;100.00
23261;BME280;11799;47.740;-3.390;2023-08-08T10:47:25;101827.59;;;19.36;100.00
23261;BME280;11799;47.740;-3.390;2023-08-08T10:50:12;101847.41;;;19.43;100.00
23261;BME280;11799;47.740;-3.390;2023-08-08T10:55:19;101854.41;;;19.54;100.00
23261;BME280;11799;47.740;-3.390;2023-08-08T11:00:26;101842.25;;;19.59;100.00
23261;BME280;11799;47.740;-3.390;2023-08-08T11:02:53;101827.84;;;19.60;100.00
23261;BME280;11799;47.740;-3.390;2023-08-08T11:05:19;101832.06;;;19.63;100.00
23261;BME280;11799;47.740;-3.390;2023-08-08T11:07:45;101834.56;;;19.64;100.00
23261;BME280;11799;47.740;-3.390;2023-08-08T11:10:11;101835.09;;;19.68;100.00
23261;BME280;11799;47.740;-3.390;2023-08-08T11:12:37;101848.34;;;19.69;100.00
23261;BME280;11799;47.740;-3.390;2023-08-08T11:15:02;101847.03;;;19.73;100.00
23261;BME280;11799;47.740;-3.390;2023-08-08T11:17:29;101842.06;;;19.78;100.00
23261;BME280;11799;47.740;-3.390;2023-08-08T11:19:54;101835.88;;;19.78;100.00
23261;BME280;11799;47.740;-3.390;2023-08-08T11:22:23;101833.19;;;19.78;100.00
23261;BME280;11799;47.740;-3.390;2023-08-08T11:24:49;101844.38;;;19.73;100.00
23261;BME280;11799;47.740;-3.390;2023-08-08T11:27:16;101830.59;;;19.68;100.00
23261;BME280;11799;47.740;-3.390;2023-08-08T11:29:49;101817.28;;;19.59;100.00
23261;BME280;11799;47.740;-3.390;2023-08-08T11:32:16;101819.81;;;19.60;100.00
23261;BME280;11799;47.740;-3.390;2023-08-08T11:34:42;101820.84;;;19.67;100.00
23261;BME280;11799;47.740;-3.390;2023-08-08T11:37:08;101817.72;;;19.72;100.00
23261;BME280;11799;47.740;-3.390;2023-08-08T11:39:34;101808.84;;;19.71;100.00
23261;BME280;11799;47.740;-3.390;2023-08-08T11:42:00;101812.75;;;19.77;100.00
23261;BME280;11799;47.740;-3.390;2023-08-08T11:44:26;101802.63;;;19.71;100.00
23261;BME280;11799;47.740;-3.390;2023-08-08T11:46:52;101800.94;;;19.70;100.00
23261;BME280;11799;47.740;-3.390;2023-08-08T11:49:18;101812.22;;;19.73;100.00
23261;BME280;11799;47.740;-3.390;2023-08-08T11:51:44;101816.41;;;19.76;100.00
23261;BME280;11799;47.740;-3.390;2023-08-08T11:54:11;101804.31;;;19.72;100.00
23261;BME280;11799;47.740;-3.390;2023-08-08T11:56:36;101824.59;;;19.74;100.00
23261;BME280;11799;47.740;-3.390;2023-08-08T11:59:02;101811.38;;;19.73;100.00
23261;BME280;11799;47.740;-3.390;2023-08-08T12:01:30;101814.41;;;19.78;100.00
23261;BME280;11799;47.740;-3.390;2023-08-08T12:03:56;101823.84;;;19.82;100.00
23261;BME280;11799;47.740;-3.390;2023-08-08T12:06:22;101805.53;;;19.77;100.00
23261;BME280;11799;47.740;-3.390;2023-08-08T12:08:48;101797.19;;;19.81;100.00
23261;BME280;11799;47.740;-3.390;2023-08-08T12:11:15;101801.41;;;19.83;100.00
23261;BME280;11799;47.740;-3.390;2023-08-08T12:13:42;101808.28;;;19.86;100.00
23261;BME280;11799;47.740;-3.390;2023-08-08T12:16:09;101816.69;;;19.91;100.00
23261;BME280;11799;47.740;-3.390;2023-08-08T12:18:36;101811.88;;;19.94;100.00
23261;BME280;11799;47.740;-3.390;2023-08-08T12:21:04;101799.16;;;19.96;100.00
23261;BME280;11799;47.740;-3.390;2023-08-08T12:23:30;101801.00;;;19.96;100.00
23261;BME280;11799;47.740;-3.390;2023-08-08T12:25:57;101807.41;;;20.03;100.00
23261;BME280;11799;47.740;-3.390;2023-08-08T12:28:23;101783.22;;;19.95;100.00
23261;BME280;11799;47.740;-3.390;2023-08-08T12:30:48;101791.41;;;19.93;100.00